Time;durP1;ratioP1;P1;durP2;ratioP2;P2;SDS_P1;SDS_P2;PMS_P1;PMS_P2;Temp;Humidity;BMP_temperature;BMP_pressure;BME280_temperature;BME280_humidity;BME280_pressure;Samples;Min_cycle;Max_cycle;Signal;HPM_P1;HPM_P2
2023/08/07 00:00:15;;;;;;;9.75;3.65;;;;;;;;;;5012315;28;20037;-82
2023/08/07 00:02:40;;;;;;;9.10;4.05;;;;;;;;;;5012061;28;20030;-82
2023/08/07 00:05:06;;;;;;;8.45;3.78;;;;;;;;;;5012209;28;20041;-82
2023/08/07 00:07:31;;;;;;;5.15;3.55;;;;;;;;;;5013050;28;20432;-83
2023/08/07 00:09:57;;;;;;;8.02;3.55;;;;;;;;;;5007959;28;20433;-82
2023/08/07 00:12:22;;;;;;;8.43;3.67;;;;;;;;;;5011722;28;20029;-82
2023/08/07 00:14:50;;;;;;;7.40;3.55;;;;;;;;;;5012046;28;20038;-82
2023/08/07 00:17:15;;;;;;;5.10;3.63;;;;;;;;;;5028177;28;20096;-82
2023/08/07 00:19:41;;;;;;;6.15;3.63;;;;;;;;;;4995327;28;20038;-82
2023/08/07 00:22:06;;;;;;;9.13;4.28;;;;;;;;;;5012979;28;20021;-82
2023/08/07 00:24:32;;;;;;;7.38;4.10;;;;;;;;;;5011452;28;20064;-82
2023/08/07 00:26:57;;;;;;;6.32;3.47;;;;;;;;;;5013088;28;20025;-82
2023/08/07 00:29:23;;;;;;;6.53;3.38;;;;;;;;;;4995124;28;20049;-82
2023/08/07 00:31:48;;;;;;;6.85;3.42;;;;;;;;;;5011444;28;20030;-82
2023/08/07 00:34:14;;;;;;;6.15;3.85;;;;;;;;;;5011743;28;20038;-82
2023/08/07 00:36:39;;;;;;;5.70;3.70;;;;;;;;;;5027939;28;20022;-82
2023/08/07 00:39:06;;;;;;;6.10;3.70;;;;;;;;;;5011661;28;20065;-82
2023/08/07 00:41:33;;;;;;;6.13;3.78;;;;;;;;;;5001043;28;20096;-82
2023/08/07 00:43:58;;;;;;;7.72;3.80;;;;;;;;;;5028738;28;20185;-82
2023/08/07 00:46:24;;;;;;;8.18;3.60;;;;;;;;;;5011012;28;20089;-82
2023/08/07 00:48:49;;;;;;;6.95;3.72;;;;;;;;;;5011342;28;20101;-82
2023/08/07 00:51:15;;;;;;;6.20;3.83;;;;;;;;;;5010636;28;20032;-82
2023/08/07 00:53:40;;;;;;;10.43;3.70;;;;;;;;;;4992203;28;20045;-82
2023/08/07 00:56:06;;;;;;;6.13;3.50;;;;;;;;;;5011461;28;20018;-82
2023/08/07 00:58:32;;;;;;;6.07;3.63;;;;;;;;;;5011597;28;20080;-82
2023/08/07 01:00:57;;;;;;;8.23;3.35;;;;;;;;;;5011101;28;20424;-82
2023/08/07 01:03:23;;;;;;;4.93;3.80;;;;;;;;;;4995172;28;20060;-82
2023/08/07 01:05:49;;;;;;;6.53;3.30;;;;;;;;;;4993465;28;20034;-82
2023/08/07 01:08:14;;;;;;;6.38;3.47;;;;;;;;;;5012740;28;20074;-82
2023/08/07 01:10:40;;;;;;;6.82;3.90;;;;;;;;;;4994509;28;20133;-82
2023/08/07 01:13:13;;;;;;;6.30;3.60;;;;;;;;;;5011282;28;20053;-82
2023/08/07 01:15:38;;;;;;;5.57;3.38;;;;;;;;;;4990474;28;20034;-82
2023/08/07 01:18:04;;;;;;;6.28;3.40;;;;;;;;;;4993979;28;20045;-82
2023/08/07 01:20:30;;;;;;;5.45;3.70;;;;;;;;;;4994942;28;20034;-82
2023/08/07 01:22:55;;;;;;;6.72;3.63;;;;;;;;;;5012276;28;20033;-82
2023/08/07 01:25:21;;;;;;;5.68;3.58;;;;;;;;;;5011306;28;20519;-82
2023/08/07 01:28:00;;;;;;;6.80;3.67;;;;;;;;;;5010880;28;20027;-82
2023/08/07 01:30:25;;;;;;;6.93;3.40;;;;;;;;;;5011265;28;20046;-81
2023/08/07 01:32:59;;;;;;;8.00;3.25;;;;;;;;;;5011988;28;20113;-82
2023/08/07 01:35:26;;;;;;;6.78;3.25;;;;;;;;;;4994790;28;20116;-82
2023/08/07 01:37:51;;;;;;;5.75;3.42;;;;;;;;;;5010972;28;20113;-81
2023/08/07 01:40:18;;;;;;;5.20;3.20;;;;;;;;;;4994903;28;20677;-81
2023/08/07 01:42:43;;;;;;;6.00;3.30;;;;;;;;;;4994477;28;20025;-82
2023/08/07 01:45:09;;;;;;;5.55;3.42;;;;;;;;;;4994574;28;20042;-82
2023/08/07 01:47:34;;;;;;;6.93;3.50;;;;;;;;;;5011943;28;20444;-82
2023/08/07 01:50:00;;;;;;;5.43;3.17;;;;;;;;;;5006584;28;20038;-82
2023/08/07 01:52:25;;;;;;;5.40;3.00;;;;;;;;;;5011641;28;20021;-82
2023/08/07 01:54:51;;;;;;;8.60;3.60;;;;;;;;;;5015073;28;20405;-82
2023/08/07 01:57:16;;;;;;;10.25;3.38;;;;;;;;;;5014112;28;20029;-82
2023/08/07 01:59:43;;;;;;;5.72;3.60;;;;;;;;;;5014505;28;20037;-82
2023/08/07 02:02:09;;;;;;;8.45;4.05;;;;;;;;;;4998040;28;20030;-82
2023/08/07 02:04:35;;;;;;;7.38;3.60;;;;;;;;;;4998337;28;20049;-81
2023/08/07 02:07:00;;;;;;;5.72;3.10;;;;;;;;;;5014005;28;20559;-82
2023/08/07 02:09:26;;;;;;;5.15;3.55;;;;;;;;;;4994527;28;20030;-82
2023/08/07 02:11:51;;;;;;;5.97;3.33;;;;;;;;;;5010439;28;20428;-82
2023/08/07 02:14:16;;;;;;;8.73;3.70;;;;;;;;;;5014005;28;20060;-82
2023/08/07 02:16:42;;;;;;;7.68;3.50;;;;;;;;;;4997815;28;20077;-82
2023/08/07 02:19:07;;;;;;;5.78;3.17;;;;;;;;;;4994425;28;20044;-82
2023/08/07 02:21:33;;;;;;;11.68;3.60;;;;;;;;;;5028664;28;20113;-82
2023/08/07 02:23:58;;;;;;;6.55;3.47;;;;;;;;;;5014013;28;20034;-82
2023/08/07 02:26:24;;;;;;;7.20;4.03;;;;;;;;;;4994275;28;20022;-82
2023/08/07 02:28:50;;;;;;;8.15;3.60;;;;;;;;;;5014028;28;20068;-82
2023/08/07 02:31:15;;;;;;;5.95;3.05;;;;;;;;;;5013801;28;20120;-82
2023/08/07 02:33:41;;;;;;;5.50;3.17;;;;;;;;;;5030048;28;20132;-82
2023/08/07 02:36:06;;;;;;;6.40;3.65;;;;;;;;;;5013597;28;20326;-82
2023/08/07 02:38:32;;;;;;;6.28;3.50;;;;;;;;;;5013543;28;20389;-82
2023/08/07 02:40:57;;;;;;;6.30;3.70;;;;;;;;;;4996922;28;20039;-82
2023/08/07 02:43:23;;;;;;;5.70;3.50;;;;;;;;;;5013519;28;20030;-82
2023/08/07 02:45:48;;;;;;;6.05;3.15;;;;;;;;;;5029990;28;20499;-81
2023/08/07 02:48:14;;;;;;;6.25;3.20;;;;;;;;;;5030077;28;20138;-82
2023/08/07 02:50:39;;;;;;;7.75;3.33;;;;;;;;;;5012187;28;20072;-82
2023/08/07 02:53:05;;;;;;;6.28;3.40;;;;;;;;;;5013517;28;20021;-81
2023/08/07 02:55:30;;;;;;;5.90;3.28;;;;;;;;;;5013213;28;20530;-82
2023/08/07 02:57:56;;;;;;;11.50;3.10;;;;;;;;;;4996923;28;20132;-82
2023/08/07 03:00:21;;;;;;;7.80;3.08;;;;;;;;;;5013125;28;20072;-82
2023/08/07 03:02:47;;;;;;;4.72;3.10;;;;;;;;;;4997036;28;20033;-81
2023/08/07 03:05:12;;;;;;;7.47;3.30;;;;;;;;;;5012170;28;20020;-82
2023/08/07 03:07:38;;;;;;;8.85;3.47;;;;;;;;;;5008171;28;20041;-82
2023/08/07 03:10:04;;;;;;;6.53;3.42;;;;;;;;;;5014085;28;20030;-82
2023/08/07 03:12:29;;;;;;;10.15;3.10;;;;;;;;;;5014362;28;20042;-82
2023/08/07 03:14:55;;;;;;;5.20;2.95;;;;;;;;;;5012928;28;20029;-82
2023/08/07 03:17:20;;;;;;;6.65;3.20;;;;;;;;;;5012998;28;20488;-81
2023/08/07 03:19:46;;;;;;;5.65;3.25;;;;;;;;;;5003178;28;20024;-80
2023/08/07 03:22:12;;;;;;;6.72;3.55;;;;;;;;;;5010176;28;20037;-82
2023/08/07 03:24:37;;;;;;;7.88;3.35;;;;;;;;;;4996198;28;20020;-81
2023/08/07 03:27:03;;;;;;;9.50;3.50;;;;;;;;;;5009147;28;20037;-82
2023/08/07 03:29:29;;;;;;;6.85;3.22;;;;;;;;;;5019542;28;20046;-82
2023/08/07 03:31:54;;;;;;;5.70;3.05;;;;;;;;;;5011037;28;20033;-82
2023/08/07 03:34:20;;;;;;;7.55;3.75;;;;;;;;;;5008030;28;20092;-82
2023/08/07 03:36:45;;;;;;;7.93;3.88;;;;;;;;;;5012356;28;20038;-83
2023/08/07 03:39:12;;;;;;;6.57;3.05;;;;;;;;;;5009217;28;20529;-82
2023/08/07 03:41:38;;;;;;;7.78;3.33;;;;;;;;;;5007583;28;20046;-82
2023/08/07 03:44:04;;;;;;;6.53;3.40;;;;;;;;;;5013770;28;20113;-81
2023/08/07 03:46:29;;;;;;;6.95;3.20;;;;;;;;;;5012331;28;20458;-83
2023/08/07 03:48:55;;;;;;;7.35;3.20;;;;;;;;;;5011147;28;20033;-84
2023/08/07 03:51:22;;;;;;;8.27;3.35;;;;;;;;;;5027999;28;20030;-82
2023/08/07 03:53:51;;;;;;;6.88;3.35;;;;;;;;;;5010885;28;20029;-82
2023/08/07 03:56:16;;;;;;;5.18;2.90;;;;;;;;;;5013893;28;20038;-82
2023/08/07 03:58:42;;;;;;;5.45;2.90;;;;;;;;;;5012050;28;20394;-83
2023/08/07 04:01:08;;;;;;;7.57;3.17;;;;;;;;;;4996016;28;20398;-81
2023/08/07 04:03:34;;;;;;;6.38;3.40;;;;;;;;;;5011819;28;20045;-82
2023/08/07 04:06:05;;;;;;;5.38;3.15;;;;;;;;;;5013607;28;20134;-82
2023/08/07 04:08:30;;;;;;;7.38;3.65;;;;;;;;;;5012654;28;20396;-84
2023/08/07 04:11:05;;;;;;;8.20;3.20;;;;;;;;;;5028427;28;20022;-82
2023/08/07 04:13:32;;;;;;;8.25;3.45;;;;;;;;;;4995066;28;20540;-82
2023/08/07 04:15:58;;;;;;;6.10;2.97;;;;;;;;;;5013036;28;20030;-82
2023/08/07 04:18:24;;;;;;;7.18;3.28;;;;;;;;;;4995038;28;20492;-82
2023/08/07 04:20:50;;;;;;;9.15;3.17;;;;;;;;;;5013231;28;20038;-82
2023/08/07 04:23:15;;;;;;;17.20;3.78;;;;;;;;;;5011715;28;20080;-82
2023/08/07 04:25:41;;;;;;;12.18;3.22;;;;;;;;;;5013319;28;20034;-82
2023/08/07 04:28:06;;;;;;;6.57;3.17;;;;;;;;;;5011552;28;20108;-82
2023/08/07 04:30:32;;;;;;;7.93;3.15;;;;;;;;;;4995384;28;20121;-83
2023/08/07 04:32:57;;;;;;;5.43;2.95;;;;;;;;;;5013001;28;20117;-82
2023/08/07 04:35:23;;;;;;;5.95;2.83;;;;;;;;;;5028472;28;20033;-83
2023/08/07 04:37:48;;;;;;;6.32;3.15;;;;;;;;;;5007911;28;20037;-83
2023/08/07 04:40:13;;;;;;;6.97;3.13;;;;;;;;;;5012846;28;20408;-83
2023/08/07 04:42:39;;;;;;;7.28;2.97;;;;;;;;;;5011446;28;20030;-83
2023/08/07 04:45:05;;;;;;;5.07;2.67;;;;;;;;;;5012780;28;20025;-83
2023/08/07 04:47:30;;;;;;;6.00;2.90;;;;;;;;;;5009286;28;20509;-83
2023/08/07 04:49:56;;;;;;;7.20;2.83;;;;;;;;;;5011442;28;20025;-83
2023/08/07 04:52:21;;;;;;;5.15;2.88;;;;;;;;;;5011093;28;20026;-82
2023/08/07 04:54:47;;;;;;;8.95;3.05;;;;;;;;;;5011435;28;20025;-82
2023/08/07 04:57:12;;;;;;;8.60;2.90;;;;;;;;;;5011716;28;20038;-82
2023/08/07 04:59:37;;;;;;;8.88;3.13;;;;;;;;;;5012621;28;20116;-82
2023/08/07 05:02:03;;;;;;;6.47;3.33;;;;;;;;;;5011478;28;20083;-82
2023/08/07 05:04:28;;;;;;;7.93;3.83;;;;;;;;;;5027747;28;20489;-82
2023/08/07 05:06:54;;;;;;;6.88;3.10;;;;;;;;;;5017625;28;20074;-83
2023/08/07 05:09:19;;;;;;;6.35;3.20;;;;;;;;;;5011052;28;20026;-82
2023/08/07 05:11:45;;;;;;;5.75;3.33;;;;;;;;;;5027982;28;20033;-82
2023/08/07 05:14:10;;;;;;;9.85;3.00;;;;;;;;;;5012037;28;20061;-82
2023/08/07 05:16:36;;;;;;;6.05;2.92;;;;;;;;;;5012440;28;20108;-82
2023/08/07 05:19:01;;;;;;;7.20;2.58;;;;;;;;;;5012076;28;20022;-82
2023/08/07 05:21:27;;;;;;;9.60;3.08;;;;;;;;;;5012617;28;20044;-83
2023/08/07 05:23:54;;;;;;;7.35;2.70;;;;;;;;;;5010632;28;20393;-82
2023/08/07 05:26:21;;;;;;;4.82;2.78;;;;;;;;;;5012303;28;20049;-82
2023/08/07 05:28:46;;;;;;;9.88;2.92;;;;;;;;;;5014227;28;20026;-82
2023/08/07 05:31:12;;;;;;;8.80;3.00;;;;;;;;;;5031477;28;20128;-82
2023/08/07 05:33:37;;;;;;;8.20;2.95;;;;;;;;;;5031052;28;20288;-82
2023/08/07 05:36:03;;;;;;;9.68;3.08;;;;;;;;;;5031333;28;20030;-82
2023/08/07 05:38:28;;;;;;;6.40;2.67;;;;;;;;;;5015760;28;20030;-82
2023/08/07 05:40:54;;;;;;;5.97;3.00;;;;;;;;;;5014863;28;20092;-82
2023/08/07 05:43:19;;;;;;;5.43;3.42;;;;;;;;;;5015651;28;20079;-82
2023/08/07 05:45:46;;;;;;;7.05;3.10;;;;;;;;;;5016206;28;20038;-82
2023/08/07 05:48:11;;;;;;;8.77;3.20;;;;;;;;;;5015558;28;20018;-83
2023/08/07 05:50:37;;;;;;;10.20;3.10;;;;;;;;;;5029038;28;20545;-84
2023/08/07 05:53:04;;;;;;;5.35;2.75;;;;;;;;;;5015742;28;20349;-82
2023/08/07 05:55:29;;;;;;;6.85;2.95;;;;;;;;;;4997123;28;20061;-82
2023/08/07 05:57:55;;;;;;;7.80;2.80;;;;;;;;;;5014706;28;20465;-81
2023/08/07 06:00:20;;;;;;;6.15;3.50;;;;;;;;;;4997873;28;20052;-81
2023/08/07 06:02:46;;;;;;;7.25;3.22;;;;;;;;;;5014189;28;20124;-83
2023/08/07 06:05:14;;;;;;;4.95;2.63;;;;;;;;;;5013976;28;20041;-83
2023/08/07 06:07:39;;;;;;;4.57;2.80;;;;;;;;;;5015378;28;20028;-82
2023/08/07 06:10:05;;;;;;;9.20;3.10;;;;;;;;;;5015077;28;20042;-83
2023/08/07 06:12:31;;;;;;;8.60;2.90;;;;;;;;;;5015454;28;20030;-81
2023/08/07 06:14:56;;;;;;;8.95;2.80;;;;;;;;;;5014014;28;20053;-81
2023/08/07 06:17:22;;;;;;;7.82;2.80;;;;;;;;;;5015223;28;20029;-82
2023/08/07 06:19:48;;;;;;;8.35;3.13;;;;;;;;;;5015315;28;20026;-83
2023/08/07 06:22:13;;;;;;;4.57;2.65;;;;;;;;;;5015415;28;20116;-82
2023/08/07 06:24:38;;;;;;;9.20;3.40;;;;;;;;;;5013875;28;20504;-83
2023/08/07 06:27:04;;;;;;;8.93;2.95;;;;;;;;;;5012736;28;20037;-82
2023/08/07 06:29:30;;;;;;;8.85;3.10;;;;;;;;;;4997071;28;20441;-82
2023/08/07 06:31:55;;;;;;;9.35;3.10;;;;;;;;;;5013873;28;20037;-82
2023/08/07 06:34:20;;;;;;;9.38;3.25;;;;;;;;;;5014983;28;20026;-82
2023/08/07 06:36:46;;;;;;;7.82;3.10;;;;;;;;;;5013874;28;20490;-82
2023/08/07 06:39:11;;;;;;;9.82;3.17;;;;;;;;;;5012418;28;20036;-82
2023/08/07 06:41:37;;;;;;;6.90;3.38;;;;;;;;;;5014912;28;20047;-82
2023/08/07 06:44:02;;;;;;;6.22;2.97;;;;;;;;;;5013580;28;20408;-83
2023/08/07 06:46:28;;;;;;;6.30;2.78;;;;;;;;;;5014942;28;20037;-83
2023/08/07 06:48:53;;;;;;;5.50;2.60;;;;;;;;;;5012109;28;20034;-83
2023/08/07 06:51:19;;;;;;;10.23;2.90;;;;;;;;;;5013137;28;20408;-82
2023/08/07 06:53:44;;;;;;;8.38;2.97;;;;;;;;;;5014518;28;20065;-83
2023/08/07 06:56:10;;;;;;;7.78;2.80;;;;;;;;;;5014883;28;20026;-83
2023/08/07 06:58:35;;;;;;;5.03;2.80;;;;;;;;;;4997008;28;20038;-83
2023/08/07 07:01:01;;;;;;;8.60;2.88;;;;;;;;;;5014476;28;20022;-83
2023/08/07 07:03:26;;;;;;;7.60;3.20;;;;;;;;;;5013319;28;20404;-83
2023/08/07 07:05:52;;;;;;;12.23;3.45;;;;;;;;;;5013045;28;20033;-83
2023/08/07 07:08:17;;;;;;;8.52;2.90;;;;;;;;;;5014079;28;20052;-83
2023/08/07 07:10:43;;;;;;;6.07;3.00;;;;;;;;;;5014061;28;20042;-83
2023/08/07 07:13:09;;;;;;;8.00;2.70;;;;;;;;;;5012266;28;20057;-83
2023/08/07 07:15:35;;;;;;;8.85;3.33;;;;;;;;;;5012949;28;20032;-83
2023/08/07 07:18:01;;;;;;;7.60;3.30;;;;;;;;;;5012746;28;20120;-84
2023/08/07 07:20:26;;;;;;;6.03;3.20;;;;;;;;;;5012806;28;20465;-84
2023/08/07 07:22:52;;;;;;;12.65;3.28;;;;;;;;;;5013734;28;20049;-83
2023/08/07 07:25:17;;;;;;;9.35;3.70;;;;;;;;;;5009082;28;20047;-83
2023/08/07 07:27:43;;;;;;;9.68;3.17;;;;;;;;;;5010441;28;20059;-83
2023/08/07 07:30:09;;;;;;;7.63;2.90;;;;;;;;;;5012093;28;20120;-83
2023/08/07 07:32:34;;;;;;;8.32;2.83;;;;;;;;;;4996262;28;20394;-83
2023/08/07 07:35:00;;;;;;;7.80;3.05;;;;;;;;;;5029211;28;20033;-83
2023/08/07 07:37:25;;;;;;;8.27;2.80;;;;;;;;;;5012567;28;20030;-83
2023/08/07 07:39:50;;;;;;;11.07;3.03;;;;;;;;;;5029305;28;20085;-83
2023/08/07 07:42:16;;;;;;;8.75;2.50;;;;;;;;;;5012946;28;20026;-83
2023/08/07 07:44:41;;;;;;;15.15;2.72;;;;;;;;;;5013587;28;20121;-83
2023/08/07 07:47:07;;;;;;;7.10;2.63;;;;;;;;;;5013284;28;20046;-83
2023/08/07 07:49:33;;;;;;;7.07;2.75;;;;;;;;;;5027532;28;20060;-84
2023/08/07 07:51:58;;;;;;;8.63;2.67;;;;;;;;;;5013221;28;20078;-83
2023/08/07 07:54:24;;;;;;;8.45;2.63;;;;;;;;;;4995988;28;20039;-83
2023/08/07 07:56:49;;;;;;;6.20;2.42;;;;;;;;;;4979226;28;20033;-83
2023/08/07 07:59:14;;;;;;;7.65;2.70;;;;;;;;;;5013688;28;20038;-83
2023/08/07 08:01:40;;;;;;;8.40;2.50;;;;;;;;;;5011929;28;20037;-84
2023/08/07 08:04:06;;;;;;;7.53;2.65;;;;;;;;;;5012314;28;20124;-83
2023/08/07 08:06:31;;;;;;;8.90;2.70;;;;;;;;;;5011643;28;20042;-83
2023/08/07 08:08:57;;;;;;;9.13;2.60;;;;;;;;;;5012081;28;20033;-83
2023/08/07 08:11:22;;;;;;;6.32;2.63;;;;;;;;;;5011480;28;20025;-84
2023/08/07 08:13:48;;;;;;;10.07;3.25;;;;;;;;;;5013454;28;20050;-83
2023/08/07 08:16:13;;;;;;;11.48;2.20;;;;;;;;;;5012938;28;20038;-83
2023/08/07 08:18:39;;;;;;;11.73;3.47;;;;;;;;;;5013343;28;20065;-83
2023/08/07 08:21:04;;;;;;;10.32;2.70;;;;;;;;;;5012939;28;20036;-83
2023/08/07 08:23:30;;;;;;;8.20;2.60;;;;;;;;;;5012131;28;20062;-83
2023/08/07 08:25:55;;;;;;;11.48;2.60;;;;;;;;;;4992667;28;20050;-83
2023/08/07 08:28:20;;;;;;;7.68;2.50;;;;;;;;;;5012094;28;20128;-83
2023/08/07 08:30:46;;;;;;;10.60;2.53;;;;;;;;;;5011549;28;20095;-83
2023/08/07 08:33:14;;;;;;;11.38;2.90;;;;;;;;;;5011688;28;20034;-84
2023/08/07 08:35:39;;;;;;;10.82;3.30;;;;;;;;;;5011334;28;20547;-83
2023/08/07 08:38:05;;;;;;;4.72;2.60;;;;;;;;;;5028256;28;20041;-84
2023/08/07 08:40:31;;;;;;;7.47;3.53;;;;;;;;;;5027983;28;20032;-83
2023/08/07 08:42:58;;;;;;;5.80;2.70;;;;;;;;;;5027286;28;20511;-83
2023/08/07 08:45:23;;;;;;;8.02;2.22;;;;;;;;;;5011156;28;20025;-84
2023/08/07 08:47:48;;;;;;;11.48;2.60;;;;;;;;;;5012772;28;20049;-83
2023/08/07 08:50:14;;;;;;;8.32;3.25;;;;;;;;;;5012684;28;20034;-83
2023/08/07 08:52:44;;;;;;;10.40;2.85;;;;;;;;;;5012548;28;20033;-83
2023/08/07 08:55:10;;;;;;;6.90;2.72;;;;;;;;;;5012757;28;20052;-84
2023/08/07 08:57:35;;;;;;;6.68;2.70;;;;;;;;;;5012830;28;20469;-83
2023/08/07 09:00:02;;;;;;;8.63;2.47;;;;;;;;;;5012530;28;20022;-84
2023/08/07 09:02:29;;;;;;;5.90;2.55;;;;;;;;;;5013957;28;20034;-84
2023/08/07 09:04:54;;;;;;;8.40;2.72;;;;;;;;;;5016668;28;20037;-84
2023/08/07 09:07:20;;;;;;;6.82;3.10;;;;;;;;;;5016619;28;20167;-84
2023/08/07 09:09:46;;;;;;;7.20;2.60;;;;;;;;;;5015250;28;20029;-84
2023/08/07 09:12:13;;;;;;;11.48;2.60;;;;;;;;;;5031607;28;20204;-83
2023/08/07 09:14:39;;;;;;;4.05;2.28;;;;;;;;;;5016037;28;20046;-83
2023/08/07 09:17:04;;;;;;;9.23;2.40;;;;;;;;;;5031747;28;20037;-83
2023/08/07 09:19:30;;;;;;;5.40;2.35;;;;;;;;;;5032100;28;20030;-81
2023/08/07 09:21:56;;;;;;;6.53;2.83;;;;;;;;;;5015259;28;20037;-83
2023/08/07 09:24:22;;;;;;;7.75;2.70;;;;;;;;;;5016233;28;20036;-82
2023/08/07 09:26:47;;;;;;;9.13;2.35;;;;;;;;;;5031473;28;20030;-84
2023/08/07 09:29:13;;;;;;;6.22;2.47;;;;;;;;;;5031481;28;20029;-83
2023/08/07 09:31:39;;;;;;;5.88;2.72;;;;;;;;;;5014918;28;20046;-84
2023/08/07 09:34:04;;;;;;;9.63;2.60;;;;;;;;;;5016210;28;20018;-83
2023/08/07 09:36:31;;;;;;;8.68;2.80;;;;;;;;;;5031522;28;20053;-83
2023/08/07 09:38:58;;;;;;;6.85;2.80;;;;;;;;;;4998459;28;20030;-83
2023/08/07 09:41:23;;;;;;;6.88;2.92;;;;;;;;;;5029918;28;20030;-83
2023/08/07 09:43:48;;;;;;;5.32;2.60;;;;;;;;;;5016257;28;20044;-82
2023/08/07 09:46:14;;;;;;;8.32;3.03;;;;;;;;;;5016457;28;20123;-83
2023/08/07 09:48:43;;;;;;;6.93;2.75;;;;;;;;;;5015236;28;20041;-83
2023/08/07 09:51:08;;;;;;;8.52;2.67;;;;;;;;;;5003469;28;20047;-83
2023/08/07 09:53:34;;;;;;;6.55;2.47;;;;;;;;;;5014796;28;20026;-82
2023/08/07 09:55:59;;;;;;;9.60;2.70;;;;;;;;;;5016588;28;20022;-82
2023/08/07 09:58:25;;;;;;;7.80;2.70;;;;;;;;;;5014730;28;20449;-83
2023/08/07 10:00:53;;;;;;;6.75;2.70;;;;;;;;;;5016139;28;20034;-82
2023/08/07 10:03:19;;;;;;;11.60;3.25;;;;;;;;;;5015360;28;20041;-84
2023/08/07 10:05:44;;;;;;;6.18;2.80;;;;;;;;;;5016268;28;20045;-84
2023/08/07 10:08:12;;;;;;;4.28;2.60;;;;;;;;;;5016096;28;20512;-83
2023/08/07 10:10:38;;;;;;;10.30;2.78;;;;;;;;;;5014433;28;20046;-84
2023/08/07 10:13:03;;;;;;;5.30;2.53;;;;;;;;;;5015307;28;20406;-83
2023/08/07 10:15:29;;;;;;;7.30;2.75;;;;;;;;;;5016082;28;20099;-83
2023/08/07 10:17:55;;;;;;;8.13;3.05;;;;;;;;;;5014315;28;20485;-83
2023/08/07 10:20:20;;;;;;;10.93;2.83;;;;;;;;;;4997645;28;20413;-84
2023/08/07 10:22:46;;;;;;;16.67;2.80;;;;;;;;;;5014459;28;20033;-83
2023/08/07 10:25:11;;;;;;;5.80;2.63;;;;;;;;;;4998143;28;20135;-84
2023/08/07 10:27:38;;;;;;;9.93;3.03;;;;;;;;;;5013967;28;20025;-83
2023/08/07 10:30:05;;;;;;;10.43;3.20;;;;;;;;;;5030557;28;20033;-83
2023/08/07 10:32:30;;;;;;;9.13;2.88;;;;;;;;;;5015163;28;20026;-83
2023/08/07 10:34:56;;;;;;;7.03;2.50;;;;;;;;;;5030972;28;20088;-84
2023/08/07 10:37:40;;;;;;;12.20;2.90;;;;;;;;;;5012910;28;20036;-84
2023/08/07 10:40:09;;;;;;;4.60;2.70;;;;;;;;;;5015063;28;20489;-84
2023/08/07 10:42:54;;;;;;;11.25;2.83;;;;;;;;;;4997760;28;20480;-84
2023/08/07 10:45:22;;;;;;;12.60;3.40;;;;;;;;;;5007957;28;20394;-84
2023/08/07 10:48:07;;;;;;;20.83;3.60;;;;;;;;;;5013542;28;20022;-84
2023/08/07 10:50:32;;;;;;;;;;;;;;;;;;5014083;28;20033;-82
2023/08/07 10:53:04;;;;;;;6.75;2.80;;;;;;;;;;5029737;28;19913;-82
2023/08/07 10:55:45;;;;;;;10.25;3.15;;;;;;;;;;5013277;28;20061;-82
2023/08/07 10:58:28;;;;;;;9.45;3.30;;;;;;;;;;4989783;28;20037;-82
2023/08/07 11:01:13;;;;;;;9.65;3.00;;;;;;;;;;5011540;28;20038;-82
2023/08/07 11:03:40;;;;;;;9.65;2.67;;;;;;;;;;5014606;28;20116;-83
2023/08/07 11:06:05;;;;;;;8.95;2.85;;;;;;;;;;5014882;28;20048;-83
2023/08/07 11:08:31;;;;;;;12.15;2.97;;;;;;;;;;5014143;28;20481;-83
2023/08/07 11:10:57;;;;;;;8.00;2.92;;;;;;;;;;5014402;28;20125;-83
2023/08/07 11:13:23;;;;;;;7.65;2.83;;;;;;;;;;5012810;28;20041;-83
2023/08/07 11:15:48;;;;;;;9.65;2.92;;;;;;;;;;5014446;28;20042;-83
2023/08/07 11:18:14;;;;;;;15.80;2.97;;;;;;;;;;5013142;28;20032;-83
2023/08/07 11:20:40;;;;;;;9.57;2.90;;;;;;;;;;5014548;28;20489;-82
2023/08/07 11:23:06;;;;;;;9.20;2.78;;;;;;;;;;5012821;28;20026;-83
2023/08/07 11:25:31;;;;;;;13.50;3.22;;;;;;;;;;5012828;28;20052;-85
2023/08/07 11:27:57;;;;;;;6.63;2.63;;;;;;;;;;5013589;28;20430;-81
2023/08/07 11:30:22;;;;;;;11.70;3.35;;;;;;;;;;4993602;28;20042;-82
2023/08/07 11:32:48;;;;;;;11.27;3.17;;;;;;;;;;5011973;28;20524;-85
2023/08/07 11:35:14;;;;;;;11.23;3.08;;;;;;;;;;5013866;28;20444;-84
2023/08/07 11:37:47;;;;;;;13.10;3.08;;;;;;;;;;5012742;28;20018;-84
2023/08/07 11:40:13;;;;;;;9.15;2.88;;;;;;;;;;5021398;28;20045;-83
2023/08/07 11:42:38;;;;;;;12.57;2.67;;;;;;;;;;5012238;28;20029;-82
2023/08/07 11:45:04;;;;;;;6.20;2.55;;;;;;;;;;5012841;28;20029;-82
2023/08/07 11:47:29;;;;;;;12.70;3.03;;;;;;;;;;5012355;28;20018;-84
2023/08/07 11:49:55;;;;;;;6.57;2.90;;;;;;;;;;5028130;28;20041;-82
2023/08/07 11:52:22;;;;;;;12.73;2.80;;;;;;;;;;5012371;28;20534;-82
2023/08/07 11:54:49;;;;;;;14.00;2.92;;;;;;;;;;5013607;28;20535;-83
2023/08/07 11:57:15;;;;;;;13.55;2.95;;;;;;;;;;5013304;28;20034;-83
2023/08/07 11:59:40;;;;;;;11.15;2.88;;;;;;;;;;5012640;28;20040;-83
2023/08/07 12:02:11;;;;;;;8.02;3.13;;;;;;;;;;4995485;28;20120;-83
2023/08/07 12:04:37;;;;;;;6.22;2.50;;;;;;;;;;5013673;28;20408;-83
2023/08/07 12:07:02;;;;;;;7.22;2.60;;;;;;;;;;4996347;28;20094;-83
2023/08/07 12:09:28;;;;;;;7.88;2.72;;;;;;;;;;5012665;28;20052;-84
2023/08/07 12:11:57;;;;;;;6.82;2.63;;;;;;;;;;5011956;28;20438;-84
2023/08/07 12:14:23;;;;;;;8.82;2.63;;;;;;;;;;4995827;28;20050;-84
2023/08/07 12:16:49;;;;;;;6.47;2.22;;;;;;;;;;5013131;28;20040;-84
2023/08/07 12:19:16;;;;;;;8.50;2.70;;;;;;;;;;5012190;28;20057;-82
2023/08/07 12:21:41;;;;;;;10.48;2.20;;;;;;;;;;5013080;28;20445;-82
2023/08/07 12:24:07;;;;;;;5.55;2.53;;;;;;;;;;4995498;28;20037;-82
2023/08/07 12:26:32;;;;;;;6.20;2.22;;;;;;;;;;5011406;28;20466;-84
2023/08/07 12:28:58;;;;;;;4.35;2.38;;;;;;;;;;5012918;28;20042;-82
2023/08/07 12:31:23;;;;;;;6.72;2.70;;;;;;;;;;5012955;28;20092;-84
2023/08/07 12:33:49;;;;;;;5.38;2.28;;;;;;;;;;5011891;28;20045;-84
2023/08/07 12:36:14;;;;;;;7.50;2.25;;;;;;;;;;5011817;28;20127;-84
2023/08/07 12:38:40;;;;;;;8.00;2.45;;;;;;;;;;5013409;28;20041;-82
2023/08/07 12:41:06;;;;;;;5.63;2.33;;;;;;;;;;4995291;28;20404;-82
2023/08/07 12:43:31;;;;;;;6.60;2.17;;;;;;;;;;5012943;28;20038;-85
2023/08/07 12:45:58;;;;;;;14.68;2.40;;;;;;;;;;5012761;28;20029;-82
2023/08/07 12:48:26;;;;;;;15.95;2.67;;;;;;;;;;5012428;28;20080;-82
2023/08/07 12:50:51;;;;;;;6.05;2.15;;;;;;;;;;5010033;28;20038;-85
2023/08/07 12:53:17;;;;;;;8.02;2.33;;;;;;;;;;5013275;28;20105;-84
2023/08/07 12:55:42;;;;;;;5.10;2.67;;;;;;;;;;4995203;28;20037;-84
2023/08/07 12:58:08;;;;;;;6.63;2.55;;;;;;;;;;5011922;28;20032;-84
2023/08/07 13:00:34;;;;;;;8.07;2.30;;;;;;;;;;4995290;28;20029;-83
2023/08/07 13:02:59;;;;;;;7.90;2.67;;;;;;;;;;5012756;28;20041;-82
2023/08/07 13:05:25;;;;;;;7.30;2.53;;;;;;;;;;4995256;28;20046;-82
2023/08/07 13:07:53;;;;;;;7.20;2.67;;;;;;;;;;5011534;28;20378;-83
2023/08/07 13:10:19;;;;;;;7.57;2.60;;;;;;;;;;5011418;28;20038;-83
2023/08/07 13:12:46;;;;;;;8.07;2.42;;;;;;;;;;5011690;28;20501;-82
2023/08/07 13:15:37;;;;;;;12.02;2.47;;;;;;;;;;5025574;28;20037;-83
2023/08/07 13:18:03;;;;;;;9.35;2.35;;;;;;;;;;5012572;28;20049;-82
2023/08/07 13:20:33;;;;;;;7.13;2.38;;;;;;;;;;5012300;28;20125;-81
2023/08/07 13:23:01;;;;;;;8.50;2.80;;;;;;;;;;4991870;28;20038;-82
2023/08/07 13:25:27;;;;;;;10.18;2.38;;;;;;;;;;5027751;28;20060;-83
2023/08/07 13:27:52;;;;;;;9.23;2.90;;;;;;;;;;5028083;28;20103;-83
2023/08/07 13:30:18;;;;;;;7.15;2.65;;;;;;;;;;5012363;28;20116;-83
2023/08/07 13:32:43;;;;;;;8.27;2.60;;;;;;;;;;5012478;28;20096;-83
2023/08/07 13:35:09;;;;;;;11.18;3.10;;;;;;;;;;5025606;28;20088;-84
2023/08/07 13:37:37;;;;;;;9.10;2.63;;;;;;;;;;5011093;28;20026;-83
2023/08/07 13:40:04;;;;;;;10.90;2.70;;;;;;;;;;5011575;28;20519;-83
2023/08/07 13:42:30;;;;;;;8.10;2.60;;;;;;;;;;5012839;28;20034;-83
2023/08/07 13:44:55;;;;;;;7.38;2.40;;;;;;;;;;5012464;28;20508;-83
2023/08/07 13:47:21;;;;;;;7.70;2.60;;;;;;;;;;5010873;28;20092;-83
2023/08/07 13:49:47;;;;;;;13.13;2.95;;;;;;;;;;5029789;28;20045;-83
2023/08/07 13:52:13;;;;;;;13.05;2.80;;;;;;;;;;5030001;28;20045;-84
2023/08/07 13:54:38;;;;;;;10.65;2.83;;;;;;;;;;5016145;28;20030;-83
2023/08/07 13:57:04;;;;;;;11.63;2.80;;;;;;;;;;5014915;28;20034;-83
2023/08/07 13:59:29;;;;;;;9.18;2.50;;;;;;;;;;4978875;28;20026;-84
2023/08/07 14:01:56;;;;;;;5.90;2.67;;;;;;;;;;5008788;28;20045;-85
2023/08/07 14:04:21;;;;;;;6.45;2.50;;;;;;;;;;5015956;28;20030;-83
2023/08/07 14:06:47;;;;;;;7.97;2.80;;;;;;;;;;5014167;28;20052;-83
2023/08/07 14:09:13;;;;;;;6.15;2.60;;;;;;;;;;4998154;28;20064;-84
2023/08/07 14:11:39;;;;;;;11.38;2.50;;;;;;;;;;4998114;28;20044;-83
2023/08/07 14:14:05;;;;;;;12.02;2.70;;;;;;;;;;5030749;28;20448;-83
2023/08/07 14:16:31;;;;;;;9.48;3.00;;;;;;;;;;5011479;28;20026;-83
2023/08/07 14:18:56;;;;;;;6.90;2.60;;;;;;;;;;5015982;28;20048;-83
2023/08/07 14:21:22;;;;;;;10.55;2.45;;;;;;;;;;5014755;28;20034;-85
2023/08/07 14:23:49;;;;;;;9.60;2.67;;;;;;;;;;5031001;28;20057;-83
2023/08/07 14:26:15;;;;;;;5.85;2.53;;;;;;;;;;5015315;28;20079;-84
2023/08/07 14:28:41;;;;;;;9.65;3.28;;;;;;;;;;5015204;28;20037;-84
2023/08/07 14:31:06;;;;;;;6.90;2.53;;;;;;;;;;5015105;28;20036;-84
2023/08/07 14:33:32;;;;;;;12.90;2.83;;;;;;;;;;5013866;28;20485;-84